Terminal Aerodrome Forecast
Issued by NWS Sterling, VA

Current Version | Previous Version | Graphics & Text | Print | Product List | Glossary On
Versions: 1 2 3 4 5 6 7 8 9 10 11 12
000
FTUS41 KLWX 230500
TAFMRB
TAF
KMRB 230526Z 2306/2406 32012G20KT P6SM BKN050
     FM231400 32012G24KT P6SM BKN090
     FM232000 32016KT P6SM SCT090
     FM240200 31011KT P6SM SCT150=

USA.gov is the U.S. government's official web portal to all federal, state and local government web resources and services.